Time;durP1;ratioP1;P1;durP2;ratioP2;P2;SDS_P1;SDS_P2;PMS_P1;PMS_P2;Temp;Humidity;BMP_temperature;BMP_pressure;BME280_temperature;BME280_humidity;BME280_pressure;Samples;Min_cycle;Max_cycle;Signal;HPM_P1;HPM_P2
2022/01/04 08:17:18;;;;;;;16.98;16.17;;;10.20;88.90;;;;;;5090055;27;20347;-81
2022/01/04 08:19:44;;;;;;;17.77;16.98;;;10.10;90.10;;;;;;5087820;28;20039;-81
2022/01/04 08:22:10;;;;;;;19.33;18.42;;;10.30;90.30;;;;;;5087601;28;20025;-81
2022/01/04 08:24:36;;;;;;;19.88;18.98;;;10.50;90.40;;;;;;5082619;28;20028;-81
2022/01/04 08:27:02;;;;;;;20.30;19.40;;;10.60;90.50;;;;;;5071297;28;20040;-81
2022/01/04 08:29:30;;;;;;;21.10;20.10;;;10.80;90.50;;;;;;5087563;28;20037;-81
2022/01/04 08:31:58;;;;;;;21.35;20.35;;;10.90;90.40;;;;;;5084779;28;20512;-81
2022/01/04 08:34:24;;;;;;;20.83;19.85;;;11.00;90.40;;;;;;5086231;28;20032;-82
2022/01/04 08:36:50;;;;;;;19.38;18.48;;;11.10;90.40;;;;;;5086120;28;20052;-82
2022/01/04 08:39:16;;;;;;;19.70;18.70;;;11.30;90.30;;;;;;5088881;28;20354;-82
2022/01/04 08:41:42;;;;;;;19.80;18.90;;;11.30;90.30;;;;;;5068991;28;20031;-82
2022/01/04 08:44:09;;;;;;;20.35;19.42;;;11.40;90.30;;;;;;5085898;28;20031;-82
2022/01/04 08:46:36;;;;;;;20.17;19.17;;;11.40;90.30;;;;;;5086269;28;20032;-82
2022/01/04 08:49:07;;;;;;;19.58;18.67;;;11.40;90.60;;;;;;5086109;28;20031;-82
2022/01/04 08:51:34;;;;;;;19.52;18.63;;;11.50;90.20;;;;;;5069569;28;20052;-82
2022/01/04 08:54:00;;;;;;;19.90;19.00;;;11.50;90.20;;;;;;5086826;28;20031;-82
2022/01/04 08:56:26;;;;;;;19.55;18.65;;;11.60;90.20;;;;;;5085729;28;20040;-83
2022/01/04 08:58:53;;;;;;;19.30;18.40;;;11.60;90.20;;;;;;5085559;28;20035;-83
2022/01/04 09:01:19;;;;;;;19.58;18.67;;;11.60;90.20;;;;;;5086508;28;20051;-83
2022/01/04 09:03:45;;;;;;;20.08;19.17;;;11.60;90.10;;;;;;5052050;28;20037;-82
2022/01/04 09:06:11;;;;;;;20.02;19.02;;;11.60;90.10;;;;;;5121505;28;20037;-83
2022/01/04 09:08:37;;;;;;;19.98;19.08;;;11.70;90.20;;;;;;5101753;28;20028;-82
2022/01/04 09:11:04;;;;;;;20.52;19.60;;;11.70;90.20;;;;;;5102188;28;20400;-82
2022/01/04 09:13:36;;;;;;;20.40;19.45;;;11.70;90.10;;;;;;5118859;28;20036;-82
2022/01/04 09:18:46;;;;;;;20.65;19.70;;;11.70;90.10;;;;;;5088552;28;20369;-82
2022/01/04 09:21:30;;;;;;;20.67;19.67;;;11.80;90.10;;;;;;5086522;28;20043;-82
2022/01/04 09:23:57;;;;;;;20.98;19.85;;;11.80;90.10;;;;;;5086196;28;20028;-82
2022/01/04 09:26:23;;;;;;;21.83;20.83;;;11.80;90.10;;;;;;5051488;28;20090;-82
2022/01/04 09:28:50;;;;;;;21.17;20.17;;;11.80;90.10;;;;;;5070998;28;20033;-83
2022/01/04 09:31:16;;;;;;;20.90;19.90;;;11.80;90.10;;;;;;5071134;28;20040;-82
2022/01/04 09:33:42;;;;;;;21.67;20.67;;;11.80;90.10;;;;;;5055251;28;20369;-82
2022/01/04 09:36:08;;;;;;;20.48;19.58;;;11.80;90.10;;;;;;5074065;28;20048;-82
2022/01/04 09:38:34;;;;;;;20.85;19.85;;;11.80;90.00;;;;;;5055133;28;20396;-82
2022/01/04 09:41:00;;;;;;;20.50;19.60;;;11.80;90.00;;;;;;5071367;28;20481;-82
2022/01/04 09:43:27;;;;;;;19.55;18.65;;;11.90;90.00;;;;;;5071387;28;20031;-82
2022/01/04 09:45:53;;;;;;;20.90;19.90;;;11.90;90.00;;;;;;5054000;28;20036;-83
2022/01/04 09:48:19;;;;;;;20.38;19.48;;;11.90;90.00;;;;;;5089042;28;20033;-82
2022/01/04 09:50:46;;;;;;;20.50;19.60;;;11.90;90.00;;;;;;5070631;28;20029;-82
2022/01/04 09:53:19;;;;;;;20.13;19.23;;;11.90;90.00;;;;;;5054741;28;20033;-87
2022/01/04 09:55:50;;;;;;;21.13;20.13;;;11.90;90.00;;;;;;5054684;28;20436;-86
2022/01/04 09:58:20;;;;;;;21.83;20.83;;;11.90;90.10;;;;;;5072440;28;20028;-83
2022/01/04 10:00:46;;;;;;;20.85;19.88;;;12.00;90.10;;;;;;5070125;28;20493;-82
2022/01/04 10:03:26;;;;;;;20.48;19.50;;;12.00;90.00;;;;;;5106220;28;20033;-83
2022/01/04 10:06:15;;;;;;;21.02;20.02;;;12.00;89.80;;;;;;5071367;28;20039;-84
2022/01/04 10:08:59;;;;;;;20.80;19.85;;;12.00;89.70;;;;;;5056171;28;20028;-83
2022/01/04 10:11:34;;;;;;;20.88;19.90;;;12.10;89.80;;;;;;5054627;28;20029;-84
2022/01/04 10:14:00;;;;;;;21.05;20.05;;;12.10;89.80;;;;;;5054846;28;20039;-83
2022/01/04 10:16:27;;;;;;;21.73;20.67;;;12.10;89.80;;;;;;5037595;28;20036;-83
2022/01/04 10:18:53;;;;;;;19.92;19.02;;;12.10;89.80;;;;;;5072649;28;20028;-83
2022/01/04 10:21:20;;;;;;;19.67;18.77;;;12.10;89.70;;;;;;5051558;28;20044;-83
2022/01/04 10:23:55;;;;;;;21.38;20.38;;;12.20;89.70;;;;;;5054149;28;20370;-83
2022/01/04 10:26:29;;;;;;;21.40;20.40;;;12.20;89.70;;;;;;5070512;28;20026;-84
2022/01/04 10:28:55;;;;;;;20.92;19.92;;;12.20;89.70;;;;;;5054249;28;20020;-84
2022/01/04 10:31:21;;;;;;;21.17;20.17;;;12.30;89.60;;;;;;5069562;28;20034;-84
2022/01/04 10:33:52;;;;;;;20.83;19.83;;;12.30;89.50;;;;;;5069165;28;20039;-84
2022/01/04 10:36:21;;;;;;;21.33;20.33;;;12.30;89.30;;;;;;5088752;28;20041;-84
2022/01/04 10:38:48;;;;;;;21.05;20.05;;;12.30;89.30;;;;;;5102034;28;20040;-84
2022/01/04 10:41:19;;;;;;;20.90;19.90;;;12.40;89.30;;;;;;5102805;28;20029;-82
2022/01/04 10:43:47;;;;;;;19.70;18.80;;;12.30;89.20;;;;;;5078645;28;20041;-82
2022/01/04 10:46:18;;;;;;;20.27;19.30;;;12.40;89.30;;;;;;5051503;28;20520;-84
2022/01/04 10:48:45;;;;;;;;;;;12.40;89.30;;;;;;5070274;28;20375;-82
2022/01/04 10:51:20;;;;;;;20.80;19.83;;;12.40;89.30;;;;;;5093300;28;20361;-81
2022/01/04 10:53:57;;;;;;;20.63;19.63;;;12.40;89.10;;;;;;5099174;28;20040;-81
2022/01/04 10:56:31;;;;;;;20.38;19.48;;;12.40;89.10;;;;;;5083724;28;20032;-81
2022/01/04 10:59:02;;;;;;;20.20;19.30;;;12.40;89.20;;;;;;5067327;28;20024;-85
2022/01/04 11:01:38;;;;;;;20.15;19.25;;;12.30;89.10;;;;;;5069735;28;20047;-81
2022/01/04 11:04:10;;;;;;;19.42;18.52;;;12.40;89.20;;;;;;5053430;28;20016;-82
2022/01/04 11:06:37;;;;;;;20.08;19.17;;;12.40;89.10;;;;;;5051950;28;20500;-81
2022/01/04 11:09:04;;;;;;;21.50;20.50;;;12.40;89.10;;;;;;5069121;28;20041;-82
2022/01/04 11:11:30;;;;;;;21.42;20.33;;;12.40;89.10;;;;;;5036091;28;20037;-80
2022/01/04 11:13:56;;;;;;;20.73;19.73;;;12.40;89.10;;;;;;5069401;28;20044;-82
2022/01/04 11:16:23;;;;;;;20.02;19.13;;;12.40;89.10;;;;;;5036515;28;20036;-83
2022/01/04 11:18:54;;;;;;;19.58;18.67;;;12.30;89.10;;;;;;5068782;28;20032;-84
2022/01/04 11:21:31;;;;;;;20.03;19.03;;;12.40;89.10;;;;;;5083465;28;20370;-82
2022/01/04 11:23:58;;;;;;;19.60;18.50;;;12.40;89.00;;;;;;5070677;28;20270;-83
2022/01/04 11:26:24;;;;;;;19.40;18.50;;;12.40;88.90;;;;;;5070738;28;20547;-82
2022/01/04 11:28:51;;;;;;;20.23;19.23;;;12.40;88.90;;;;;;5069179;28;20036;-83
2022/01/04 11:31:41;;;;;;;19.55;18.65;;;12.40;88.90;;;;;;5050285;28;20515;-82
2022/01/04 11:34:10;;;;;;;19.52;18.55;;;12.40;88.90;;;;;;5055100;28;20032;-81
2022/01/04 11:36:37;;;;;;;19.70;18.80;;;12.50;88.90;;;;;;5069311;28;20382;-82
2022/01/04 11:39:38;;;;;;;20.17;19.17;;;12.50;88.80;;;;;;5068833;28;20020;-85
2022/01/04 11:42:31;;;;;;;19.42;18.52;;;12.50;88.80;;;;;;5007605;28;20050;-82
2022/01/04 11:44:57;;;;;;;19.65;18.75;;;12.50;88.80;;;;;;5004208;28;20042;-83
2022/01/04 11:47:26;;;;;;;19.73;18.83;;;12.50;88.70;;;;;;5024778;28;20034;-83
2022/01/04 11:50:13;;;;;;;19.65;18.75;;;12.50;88.60;;;;;;4993243;28;20030;-83
2022/01/04 11:52:45;;;;;;;19.58;18.67;;;12.50;88.70;;;;;;4991767;28;20037;-83
2022/01/04 11:55:34;;;;;;;20.73;19.77;;;12.50;88.70;;;;;;4991954;28;20044;-83
2022/01/04 11:58:14;;;;;;;20.10;19.20;;;12.60;88.70;;;;;;5009227;28;20046;-83
2022/01/04 12:00:46;;;;;;;19.25;18.35;;;12.60;88.50;;;;;;4993320;28;20050;-83
2022/01/04 12:03:18;;;;;;;20.63;19.30;;;12.70;88.50;;;;;;4977952;28;20049;-83
2022/01/04 12:05:56;;;;;;;19.10;18.20;;;12.70;88.50;;;;;;4960010;28;20065;-83
2022/01/04 12:08:41;;;;;;;19.75;18.85;;;12.80;88.40;;;;;;4992231;28;20041;-83
2022/01/04 12:11:29;;;;;;;19.55;18.65;;;12.80;88.30;;;;;;5009747;28;20034;-83
2022/01/04 12:13:56;;;;;;;21.05;19.95;;;12.90;88.20;;;;;;4996967;28;20103;-84
2022/01/04 12:16:42;;;;;;;19.85;18.95;;;12.90;88.10;;;;;;4992200;28;20180;-83
2022/01/04 12:19:12;;;;;;;21.50;20.33;;;12.90;88.00;;;;;;5036288;28;20378;-83
2022/01/04 12:21:40;;;;;;;20.15;19.25;;;12.90;88.00;;;;;;5052152;28;20035;-83
2022/01/04 12:24:07;;;;;;;20.58;19.63;;;12.90;88.00;;;;;;5104101;28;20025;-83
2022/01/04 12:26:34;;;;;;;20.45;19.55;;;12.90;88.00;;;;;;5084783;28;20031;-83
2022/01/04 12:29:03;;;;;;;20.25;19.33;;;13.00;88.00;;;;;;5069847;28;20045;-83
2022/01/04 12:31:30;;;;;;;21.20;20.00;;;12.90;87.90;;;;;;5068895;28;20039;-83
2022/01/04 12:34:03;;;;;;;20.67;19.73;;;12.90;87.90;;;;;;5052137;28;20041;-83
2022/01/04 12:36:33;;;;;;;20.58;19.58;;;13.00;88.00;;;;;;5069306;28;20531;-83
2022/01/04 12:39:08;;;;;;;20.15;19.25;;;12.90;87.90;;;;;;5086043;28;20020;-82
2022/01/04 12:41:37;;;;;;;19.75;18.85;;;13.00;88.00;;;;;;5083381;28;20060;-83
2022/01/04 12:44:04;;;;;;;21.00;20.00;;;13.00;87.90;;;;;;5084402;28;20033;-84
2022/01/04 12:46:35;;;;;;;20.38;19.45;;;13.00;87.80;;;;;;5084359;28;20039;-83
2022/01/04 12:49:03;;;;;;;20.75;19.80;;;13.10;87.80;;;;;;5068559;28;20024;-83
2022/01/04 12:51:31;;;;;;;21.17;20.17;;;13.00;87.60;;;;;;5053070;28;20032;-83
2022/01/04 12:54:01;;;;;;;21.67;20.67;;;13.00;87.60;;;;;;5102975;28;20020;-83
2022/01/04 12:56:28;;;;;;;21.80;20.80;;;13.00;87.60;;;;;;5100639;28;20036;-83
2022/01/04 12:58:54;;;;;;;21.00;20.00;;;13.10;87.70;;;;;;5101687;28;20025;-83
2022/01/04 13:01:28;;;;;;;21.48;20.48;;;13.10;87.60;;;;;;5084263;28;20036;-83
2022/01/04 13:03:54;;;;;;;22.75;21.55;;;13.10;87.70;;;;;;5055862;28;20035;-83
2022/01/04 13:06:21;;;;;;;21.40;20.40;;;13.10;87.50;;;;;;5103724;28;20400;-83
2022/01/04 13:08:51;;;;;;;21.88;20.75;;;13.10;87.50;;;;;;5055435;28;20033;-83
2022/01/04 13:11:18;;;;;;;21.05;20.05;;;13.00;87.40;;;;;;5072728;28;20401;-83
2022/01/04 13:14:01;;;;;;;21.83;20.83;;;13.00;87.40;;;;;;5071379;28;20024;-83
2022/01/04 13:16:31;;;;;;;22.60;21.50;;;13.00;87.40;;;;;;5055609;28;20045;-83
2022/01/04 13:19:11;;;;;;;22.58;21.55;;;13.00;87.50;;;;;;5070184;28;20016;-83
2022/01/04 13:21:37;;;;;;;20.85;19.85;;;13.00;87.50;;;;;;5072103;28;20029;-82
2022/01/04 13:24:03;;;;;;;21.45;20.45;;;13.10;87.40;;;;;;5075028;28;20032;-83
2022/01/04 13:26:29;;;;;;;20.70;19.75;;;13.00;87.40;;;;;;5071361;28;20032;-83
2022/01/04 13:28:56;;;;;;;20.75;19.77;;;13.00;87.30;;;;;;5054627;28;20029;-82
2022/01/04 13:31:26;;;;;;;21.40;20.40;;;13.00;87.30;;;;;;5070445;28;20039;-83
2022/01/04 13:33:52;;;;;;;22.95;21.58;;;13.00;87.30;;;;;;5070741;28;20025;-83
2022/01/04 13:36:20;;;;;;;22.10;21.10;;;13.00;87.20;;;;;;5101646;28;20036;-83
2022/01/04 13:38:48;;;;;;;22.88;21.58;;;13.10;87.20;;;;;;5057669;28;20028;-83
2022/01/04 13:41:14;;;;;;;22.05;20.98;;;13.10;87.20;;;;;;5074541;28;20028;-83
2022/01/04 13:43:45;;;;;;;22.40;21.40;;;13.10;87.20;;;;;;5054501;28;20032;-83
2022/01/04 13:46:15;;;;;;;21.90;20.90;;;13.10;87.00;;;;;;5056406;28;20037;-83
2022/01/04 13:48:44;;;;;;;21.30;20.30;;;13.10;87.00;;;;;;5054745;28;20385;-84
2022/01/04 13:51:12;;;;;;;21.90;20.90;;;13.10;87.00;;;;;;5089522;28;20033;-83
2022/01/04 13:53:42;;;;;;;518.05;267.15;;;13.10;86.90;;;;;;5104750;28;20024;-83
2022/01/04 13:56:10;;;;;;;23.83;22.73;;;13.10;86.90;;;;;;5087233;28;20041;-82
2022/01/04 13:58:47;;;;;;;517.65;266.83;;;13.10;86.80;;;;;;5086150;28;20028;-83
2022/01/04 14:01:14;;;;;;;517.35;266.52;;;13.10;86.80;;;;;;5070643;28;20032;-83
2022/01/04 14:03:41;;;;;;;1999.90;999.90;;;13.10;86.70;;;;;;5071191;28;20512;-83
2022/01/04 14:06:29;;;;;;;1999.90;999.90;;;13.10;86.80;;;;;;5089761;28;20025;-83
2022/01/04 14:08:55;;;;;;;517.53;266.70;;;13.10;86.80;;;;;;5071699;28;20032;-82
2022/01/04 14:11:28;;;;;;;518.38;267.40;;;13.10;86.80;;;;;;5069182;28;20032;-83
2022/01/04 14:13:54;;;;;;;517.75;266.92;;;13.10;86.80;;;;;;5054098;28;20032;-82
2022/01/04 14:16:22;;;;;;;518.03;267.20;;;13.10;86.80;;;;;;5053574;28;20047;-82
2022/01/04 14:19:11;;;;;;;517.55;266.73;;;13.10;86.60;;;;;;5070404;28;20032;-83
2022/01/04 14:21:42;;;;;;;518.25;267.42;;;13.10;86.60;;;;;;5102601;28;20051;-83
2022/01/04 14:24:27;;;;;;;;;;;13.10;86.50;;;;;;5072235;28;20025;-84
2022/01/04 14:26:53;;;;;;;22.40;21.30;;;13.00;86.50;;;;;;5070750;28;19916;-83
2022/01/04 14:29:39;;;;;;;22.85;21.83;;;13.00;86.50;;;;;;5064106;28;20033;-84
2022/01/04 14:32:11;;;;;;;1999.90;999.90;;;13.00;86.60;;;;;;5063836;28;20389;-84
2022/01/04 14:34:37;;;;;;;23.48;22.38;;;13.00;86.60;;;;;;5071274;28;20024;-83
2022/01/04 14:37:04;;;;;;;23.15;22.05;;;12.90;86.50;;;;;;5071168;28;20029;-83
2022/01/04 14:39:30;;;;;;;1999.90;999.90;;;12.90;86.50;;;;;;5071237;28;20035;-85
2022/01/04 14:41:58;;;;;;;518.42;267.60;;;12.90;86.50;;;;;;5072100;28;20481;-85
2022/01/04 14:44:24;;;;;;;517.10;266.33;;;12.90;86.60;;;;;;5053220;28;20037;-86
2022/01/04 14:46:51;;;;;;;22.67;21.67;;;12.80;86.60;;;;;;5069669;28;20059;-89
2022/01/04 14:49:17;;;;;;;1999.90;999.90;;;12.90;86.70;;;;;;5071144;28;20043;-83
2022/01/04 14:51:43;;;;;;;517.50;266.67;;;12.90;86.60;;;;;;5069903;28;20028;-83
2022/01/04 14:54:09;;;;;;;1999.90;999.90;;;12.80;86.50;;;;;;5106002;28;20389;-83
2022/01/04 14:56:35;;;;;;;1999.90;999.90;;;12.80;86.50;;;;;;5102915;28;20486;-82
2022/01/04 14:59:03;;;;;;;518.15;267.20;;;12.70;86.40;;;;;;5086200;28;20032;-83
2022/01/04 15:01:32;;;;;;;1999.90;999.90;;;12.70;86.40;;;;;;5102415;28;20033;-83
2022/01/04 15:03:59;;;;;;;1999.90;999.90;;;12.70;86.40;;;;;;5070143;28;20489;-83
2022/01/04 15:06:26;;;;;;;516.72;265.98;;;12.70;86.40;;;;;;5072160;28;20031;-83
2022/01/04 15:08:52;;;;;;;20.90;19.92;;;12.60;86.40;;;;;;5068806;28;20043;-83
2022/01/04 15:11:18;;;;;;;22.35;21.35;;;12.60;86.40;;;;;;5053143;28;20033;-85
2022/01/04 15:13:44;;;;;;;21.50;20.50;;;12.50;86.30;;;;;;5070689;28;20028;-83
2022/01/04 15:16:10;;;;;;;23.90;22.33;;;12.50;86.20;;;;;;5050648;28;20041;-84
2022/01/04 15:18:36;;;;;;;21.13;20.13;;;12.40;86.10;;;;;;5070922;28;20388;-84
2022/01/04 15:21:03;;;;;;;22.30;21.30;;;12.40;86.10;;;;;;5070959;28;20036;-84
2022/01/04 15:23:29;;;;;;;22.17;21.17;;;12.30;85.90;;;;;;5069101;28;20063;-83
2022/01/04 15:25:56;;;;;;;21.13;20.13;;;12.30;86.10;;;;;;5068777;28;20025;-83
2022/01/04 15:28:22;;;;;;;21.50;20.50;;;12.30;86.00;;;;;;5070533;28;20036;-82
2022/01/04 15:30:49;;;;;;;517.05;266.15;;;12.20;86.00;;;;;;5068979;28;20033;-82
2022/01/04 15:33:16;;;;;;;22.30;21.30;;;12.20;86.00;;;;;;5072193;28;20087;-83
2022/01/04 15:35:46;;;;;;;1999.90;999.90;;;12.10;86.00;;;;;;5070173;28;20040;-82
2022/01/04 15:38:12;;;;;;;1999.90;999.90;;;12.10;86.10;;;;;;5068526;28;20063;-82
2022/01/04 15:40:38;;;;;;;1999.90;999.90;;;12.00;86.10;;;;;;5064950;28;20481;-85
2022/01/04 15:43:04;;;;;;;1999.90;999.90;;;12.00;86.10;;;;;;5067325;28;20028;-83
2022/01/04 15:45:31;;;;;;;1999.90;999.90;;;12.00;86.10;;;;;;5069494;28;20035;-83
2022/01/04 15:47:57;;;;;;;21.65;20.65;;;11.90;86.10;;;;;;5069558;28;20040;-83
2022/01/04 15:50:23;;;;;;;21.00;20.00;;;11.90;86.00;;;;;;5102336;28;20024;-83
2022/01/04 15:52:51;;;;;;;21.67;20.67;;;11.80;85.70;;;;;;5084860;28;20039;-82
2022/01/04 15:55:18;;;;;;;21.00;20.00;;;11.80;85.80;;;;;;5051022;28;20040;-83
2022/01/04 15:57:45;;;;;;;22.10;21.10;;;11.70;85.70;;;;;;5051362;28;20429;-83
2022/01/04 16:00:12;;;;;;;21.23;20.20;;;11.60;85.80;;;;;;5071023;28;20497;-86
2022/01/04 16:02:38;;;;;;;20.88;19.90;;;11.60;85.90;;;;;;5050706;28;20390;-84
2022/01/04 16:05:04;;;;;;;21.30;20.30;;;11.50;85.80;;;;;;5068917;28;20417;-84
2022/01/04 16:07:31;;;;;;;21.25;20.25;;;11.50;85.90;;;;;;5067444;28;20043;-84
2022/01/04 16:09:57;;;;;;;21.05;20.05;;;11.50;85.80;;;;;;5069045;28;20032;-84
2022/01/04 16:12:24;;;;;;;21.38;20.38;;;11.40;85.80;;;;;;5068786;28;20020;-85
2022/01/04 16:14:51;;;;;;;1010.95;510.45;;;11.40;85.80;;;;;;5067970;28;20043;-84
2022/01/04 16:22:41;;;;;;;515.50;264.80;;;11.30;85.80;;;;;;5069437;28;20055;-85
2022/01/04 16:25:07;;;;;;;1999.90;999.90;;;11.30;85.80;;;;;;5069030;28;20036;-85
2022/01/04 16:27:33;;;;;;;1999.90;999.90;;;11.30;85.80;;;;;;5051109;28;20052;-83
2022/01/04 16:30:00;;;;;;;1010.83;510.33;;;11.20;85.70;;;;;;5069615;28;20482;-85
2022/01/04 16:32:27;;;;;;;515.83;265.08;;;11.20;85.70;;;;;;5067331;28;20037;-85
2022/01/04 16:34:54;;;;;;;1010.67;510.17;;;11.10;85.80;;;;;;5056164;28;20389;-84
2022/01/04 16:37:21;;;;;;;22.33;21.33;;;11.10;85.70;;;;;;5067215;28;20032;-82
2022/01/04 16:39:48;;;;;;;22.77;21.40;;;11.10;85.60;;;;;;5086786;28;20044;-82
2022/01/04 16:42:14;;;;;;;22.35;21.25;;;11.10;85.70;;;;;;5103973;28;20032;-84
2022/01/04 16:44:40;;;;;;;21.85;20.85;;;11.10;85.60;;;;;;5101935;28;20032;-84
2022/01/04 16:47:06;;;;;;;21.45;20.45;;;11.10;85.70;;;;;;5071091;28;20504;-83
2022/01/04 16:49:32;;;;;;;516.20;265.45;;;11.10;85.60;;;;;;5073298;28;20055;-83
2022/01/04 16:52:02;;;;;;;21.45;20.45;;;11.10;85.50;;;;;;5073091;28;20032;-83
2022/01/04 16:54:29;;;;;;;21.98;20.88;;;11.10;85.50;;;;;;5073687;28;20028;-83
2022/01/04 16:56:56;;;;;;;21.95;20.95;;;11.00;85.50;;;;;;5089319;28;20039;-83
2022/01/04 16:59:23;;;;;;;21.20;20.20;;;11.00;85.50;;;;;;5073040;28;20492;-83
2022/01/04 17:01:49;;;;;;;21.83;20.83;;;11.00;85.50;;;;;;5071437;28;20029;-83
2022/01/04 17:04:18;;;;;;;21.30;20.30;;;10.90;85.50;;;;;;5072031;28;20033;-83
2022/01/04 17:06:45;;;;;;;21.30;20.30;;;10.90;85.40;;;;;;5038511;28;20041;-83
2022/01/04 17:09:14;;;;;;;20.50;19.60;;;10.90;85.40;;;;;;5052566;28;20505;-83
2022/01/04 17:11:50;;;;;;;21.33;20.33;;;10.90;85.50;;;;;;5071590;28;20033;-83
2022/01/04 17:17:00;;;;;;;20.70;19.75;;;10.80;85.40;;;;;;5071458;28;20048;-82
2022/01/04 17:19:27;;;;;;;20.75;19.55;;;10.80;86.20;;;;;;5072110;28;20033;-82
2022/01/04 17:21:53;;;;;;;21.23;20.15;;;10.70;85.40;;;;;;5073051;28;20036;-82
2022/01/04 17:24:19;;;;;;;21.55;20.42;;;10.70;85.40;;;;;;5107240;28;20024;-82
2022/01/04 17:26:45;;;;;;;21.23;20.23;;;10.60;85.40;;;;;;5069630;28;20480;-84
2022/01/04 17:29:11;;;;;;;20.75;19.77;;;10.60;85.40;;;;;;5038952;28;20044;-82
2022/01/04 17:31:37;;;;;;;21.45;20.45;;;10.60;85.50;;;;;;5072099;28;20032;-86
2022/01/04 17:34:03;;;;;;;20.88;19.88;;;10.60;85.50;;;;;;5070882;28;20029;-83
2022/01/04 17:36:30;;;;;;;21.42;20.42;;;10.60;85.50;;;;;;5072636;28;20036;-83
2022/01/04 17:38:56;;;;;;;20.95;19.95;;;10.60;85.40;;;;;;5073562;28;20052;-82
2022/01/04 17:41:22;;;;;;;20.77;19.77;;;10.60;85.40;;;;;;5054476;28;20520;-82
2022/01/04 17:43:48;;;;;;;20.27;19.38;;;10.60;85.40;;;;;;5055309;28;20044;-83
2022/01/04 17:46:14;;;;;;;19.92;19.02;;;10.50;85.30;;;;;;5070325;28;20036;-83
2022/01/04 17:48:40;;;;;;;20.60;19.70;;;10.50;85.10;;;;;;5070586;28;20389;-82
2022/01/04 17:51:06;;;;;;;20.77;19.77;;;10.50;85.00;;;;;;5106751;28;20032;-83
2022/01/04 17:53:32;;;;;;;20.55;19.65;;;10.50;85.00;;;;;;5070296;28;20040;-83
2022/01/04 17:55:58;;;;;;;20.63;19.63;;;10.50;85.10;;;;;;5070670;28;20024;-82
2022/01/04 17:58:24;;;;;;;19.70;18.80;;;10.50;84.90;;;;;;5071871;28;20044;-83
2022/01/04 18:00:52;;;;;;;19.88;18.98;;;10.40;84.80;;;;;;5070249;28;20044;-82
2022/01/04 18:03:18;;;;;;;19.13;18.23;;;10.30;84.60;;;;;;5074096;28;20090;-83
2022/01/04 18:05:44;;;;;;;20.23;19.25;;;10.30;84.50;;;;;;5070847;28;20037;-83
2022/01/04 18:08:10;;;;;;;21.00;20.00;;;10.30;84.30;;;;;;5054081;28;20044;-83
2022/01/04 18:10:37;;;;;;;19.02;18.13;;;10.20;84.30;;;;;;5053581;28;20036;-83
2022/01/04 18:13:03;;;;;;;20.00;19.10;;;10.20;84.30;;;;;;5070574;28;20029;-83
2022/01/04 18:15:29;;;;;;;21.08;19.98;;;10.20;84.20;;;;;;5071530;28;20063;-83
2022/01/04 18:17:55;;;;;;;19.40;18.50;;;10.20;84.20;;;;;;5104396;28;20036;-83
2022/01/04 18:20:22;;;;;;;20.27;19.27;;;10.10;84.00;;;;;;5104146;28;20039;-85
2022/01/04 18:22:48;;;;;;;21.27;19.88;;;10.10;84.00;;;;;;5071913;28;20385;-85
2022/01/04 18:25:14;;;;;;;18.92;18.02;;;10.10;83.90;;;;;;5070161;28;20045;-83
2022/01/04 18:27:40;;;;;;;19.08;18.17;;;10.00;84.00;;;;;;5071663;28;20040;-84
2022/01/04 18:30:08;;;;;;;21.67;20.67;;;10.00;83.90;;;;;;5105187;28;20033;-82
2022/01/04 18:32:34;;;;;;;18.85;17.98;;;9.90;83.80;;;;;;5085080;28;20048;-82
2022/01/04 18:35:01;;;;;;;19.67;18.77;;;9.90;84.60;;;;;;5103678;28;20393;-81
2022/01/04 18:37:27;;;;;;;19.50;18.60;;;9.90;83.90;;;;;;5086922;28;20037;-82
2022/01/04 18:39:53;;;;;;;20.02;19.10;;;9.90;84.00;;;;;;5070122;28;20048;-82
2022/01/04 18:42:19;;;;;;;18.30;17.50;;;9.80;84.00;;;;;;5073530;28;20025;-82
2022/01/04 18:44:46;;;;;;;19.13;18.23;;;9.80;83.80;;;;;;5070354;28;20028;-82
2022/01/04 18:47:12;;;;;;;26.50;25.25;;;9.80;83.80;;;;;;5069134;28;20048;-82
2022/01/04 18:49:38;;;;;;;20.23;18.88;;;9.80;83.70;;;;;;5069964;28;20025;-82
2022/01/04 18:52:04;;;;;;;19.63;18.73;;;9.80;83.40;;;;;;5071329;28;20032;-81
2022/01/04 18:54:31;;;;;;;20.30;18.95;;;9.70;83.30;;;;;;5071193;28;20028;-82
2022/01/04 18:56:57;;;;;;;19.10;18.20;;;9.70;83.50;;;;;;5071043;28;20043;-82
2022/01/04 18:59:25;;;;;;;18.60;17.75;;;9.70;83.60;;;;;;5052620;28;20496;-82
2022/01/04 19:01:51;;;;;;;18.98;18.08;;;9.60;83.50;;;;;;5069700;28;20397;-82
2022/01/04 19:04:18;;;;;;;19.02;17.95;;;9.60;83.50;;;;;;5070085;28;20040;-82
2022/01/04 19:06:44;;;;;;;18.90;18.00;;;9.60;83.50;;;;;;5068190;28;20067;-82
2022/01/04 19:09:10;;;;;;;19.20;18.30;;;9.60;83.50;;;;;;5105641;28;20377;-82
2022/01/04 19:11:36;;;;;;;19.35;18.45;;;9.50;83.40;;;;;;5069326;28;20481;-82
2022/01/04 19:14:02;;;;;;;18.30;17.50;;;9.50;83.50;;;;;;5053925;28;20040;-82
2022/01/04 19:16:28;;;;;;;18.60;17.75;;;9.50;83.40;;;;;;5066233;28;20044;-82
2022/01/04 19:18:54;;;;;;;19.13;18.23;;;9.40;83.30;;;;;;5069675;28;20041;-82
2022/01/04 19:21:21;;;;;;;19.02;18.13;;;9.40;83.30;;;;;;5071498;28;20496;-82
2022/01/04 19:23:47;;;;;;;18.85;17.95;;;9.40;83.50;;;;;;5069274;28;20021;-82
2022/01/04 19:26:13;;;;;;;19.25;18.15;;;9.30;83.40;;;;;;5070513;28;20059;-82
2022/01/04 19:28:40;;;;;;;19.10;18.20;;;9.30;83.40;;;;;;5069496;28;20024;-83
2022/01/04 19:31:08;;;;;;;18.73;17.85;;;9.20;83.30;;;;;;5070165;28;20036;-82
2022/01/04 19:36:22;;;;;;;18.23;17.42;;;9.10;83.30;;;;;;5077312;28;20029;-82
2022/01/04 19:38:51;;;;;;;18.33;17.52;;;9.10;83.50;;;;;;5055487;28;20500;-82
2022/01/04 19:41:28;;;;;;;18.50;17.60;;;9.00;83.20;;;;;;5069082;28;20024;-82
2022/01/04 19:43:55;;;;;;;18.20;17.30;;;9.00;83.20;;;;;;5070344;28;20024;-82
2022/01/04 19:46:22;;;;;;;18.63;17.73;;;9.00;83.30;;;;;;5052705;28;20029;-82
2022/01/04 19:48:48;;;;;;;18.45;17.63;;;9.00;83.10;;;;;;5052361;28;20033;-82
2022/01/04 19:51:14;;;;;;;18.63;17.73;;;8.90;83.10;;;;;;5072277;28;20032;-82
2022/01/04 19:53:40;;;;;;;17.75;16.95;;;8.90;83.00;;;;;;5068850;28;20037;-82
2022/01/04 19:56:07;;;;;;;18.48;17.60;;;8.80;82.90;;;;;;5052213;28;20032;-82
2022/01/04 19:58:33;;;;;;;17.85;17.05;;;8.80;83.00;;;;;;5068754;28;20104;-82
2022/01/04 20:00:59;;;;;;;18.75;17.85;;;8.80;83.80;;;;;;5069309;28;20025;-82
2022/01/04 20:03:25;;;;;;;17.63;16.83;;;8.70;83.10;;;;;;5071824;28;20229;-82
2022/01/04 20:05:51;;;;;;;17.85;17.05;;;8.70;83.10;;;;;;5069246;28;20477;-82
2022/01/04 20:08:17;;;;;;;18.02;17.23;;;8.60;83.00;;;;;;5068905;28;20032;-82
2022/01/04 20:10:44;;;;;;;17.48;16.67;;;8.60;83.00;;;;;;5051554;28;20041;-82
2022/01/04 20:13:11;;;;;;;17.90;17.10;;;8.60;83.00;;;;;;5069812;28;20017;-83
2022/01/04 20:15:39;;;;;;;17.60;16.80;;;8.60;83.00;;;;;;5067836;28;20508;-83
2022/01/04 20:18:06;;;;;;;18.13;17.33;;;8.50;82.90;;;;;;5068345;28;20060;-83
2022/01/04 20:20:33;;;;;;;18.70;17.48;;;8.50;82.90;;;;;;5068616;28;20032;-82
2022/01/04 20:22:59;;;;;;;17.98;17.10;;;8.40;82.90;;;;;;5052495;28;20025;-82
2022/01/04 20:25:25;;;;;;;17.60;16.80;;;8.40;83.00;;;;;;5068506;28;20489;-83
2022/01/04 20:27:51;;;;;;;17.52;16.73;;;8.40;83.00;;;;;;5035873;28;20036;-82
2022/01/04 20:30:18;;;;;;;18.10;17.13;;;8.40;83.00;;;;;;5103723;28;20032;-82
2022/01/04 20:32:44;;;;;;;17.67;16.88;;;8.30;83.10;;;;;;5102040;28;20032;-82
2022/01/04 20:35:10;;;;;;;17.15;16.35;;;8.30;83.10;;;;;;5102015;28;20382;-82
2022/01/04 20:37:37;;;;;;;17.25;16.45;;;8.20;83.00;;;;;;5099501;28;20384;-82
2022/01/04 20:40:03;;;;;;;17.33;16.53;;;8.20;83.10;;;;;;5069696;28;20192;-82
2022/01/04 20:42:30;;;;;;;17.65;16.85;;;8.20;83.20;;;;;;5069821;28;20065;-81
2022/01/04 20:44:56;;;;;;;17.73;16.92;;;8.10;83.20;;;;;;5083531;28;20397;-81
2022/01/04 20:47:22;;;;;;;17.42;16.63;;;8.10;83.20;;;;;;5067844;28;20033;-81
2022/01/04 20:49:48;;;;;;;17.47;16.67;;;8.10;83.10;;;;;;5049856;28;20378;-83
2022/01/04 20:52:14;;;;;;;17.02;16.23;;;8.10;83.10;;;;;;5069692;28;20040;-83
2022/01/04 20:54:42;;;;;;;17.60;16.80;;;8.10;83.10;;;;;;5070093;28;20032;-83
2022/01/04 20:57:08;;;;;;;17.02;16.23;;;8.00;83.10;;;;;;5103821;28;20393;-83
2022/01/04 20:59:34;;;;;;;17.23;16.43;;;8.00;83.20;;;;;;5069731;28;20043;-83
2022/01/04 21:02:00;;;;;;;17.90;17.00;;;8.00;83.20;;;;;;5051554;28;20485;-83